Time;durP1;ratioP1;P1;durP2;ratioP2;P2;SDS_P1;SDS_P2;PMS_P1;PMS_P2;Temp;Humidity;BMP_temperature;BMP_pressure;BME280_temperature;BME280_humidity;BME280_pressure;Samples;Min_cycle;Max_cycle;Signal;HPM_P1;HPM_P2
2021/08/31 00:01:55;;;;;;;11.50;10.35;;;;;;;16.30;77.94;99768.84;4849008;28;101245;-82
2021/08/31 00:04:23;;;;;;;10.70;9.60;;;;;;;16.32;77.72;99759.94;4897388;28;97315;-84
2021/08/31 00:06:50;;;;;;;11.05;9.18;;;;;;;16.35;77.42;99771.22;4864284;28;96560;-83
2021/08/31 00:09:15;;;;;;;10.88;9.50;;;;;;;16.31;78.09;99769.69;4880477;28;96811;-82
2021/08/31 00:11:44;;;;;;;12.50;9.88;;;;;;;16.27;78.03;99763.75;4863737;28;101649;-82
2021/08/31 00:14:10;;;;;;;11.10;9.95;;;;;;;16.28;77.93;99764.59;4866868;28;101493;-83
2021/08/31 00:16:36;;;;;;;10.93;9.70;;;;;;;16.24;77.92;99756.03;4884604;28;96609;-83
2021/08/31 00:19:01;;;;;;;13.63;10.38;;;;;;;16.15;78.00;99740.75;4884110;28;96773;-82
2021/08/31 00:21:27;;;;;;;11.60;9.85;;;;;;;16.24;77.96;99755.19;4883742;28;97577;-82
2021/08/31 00:23:53;;;;;;;11.88;9.88;;;;;;;16.27;78.18;99761.13;4852119;28;101553;-83
2021/08/31 00:26:18;;;;;;;11.23;9.98;;;;;;;16.27;78.01;99755.81;4883950;28;96554;-82
2021/08/31 00:28:44;;;;;;;13.85;9.48;;;;;;;16.22;77.91;99747.31;4867942;28;96960;-82
2021/08/31 00:31:09;;;;;;;10.90;9.02;;;;;;;16.22;77.89;99735.88;4882279;28;98202;-82
2021/08/31 00:33:35;;;;;;;10.27;9.27;;;;;;;16.26;77.43;99737.38;4851538;28;101719;-82
2021/08/31 00:36:03;;;;;;;11.18;8.13;;;;;;;16.23;77.82;99742.88;4884004;28;96638;-82
2021/08/31 00:38:32;;;;;;;10.68;7.68;;;;;;;16.29;78.03;99748.63;4852547;28;96839;-81
2021/08/31 00:40:58;;;;;;;9.25;7.70;;;;;;;16.32;77.70;99747.56;4867528;28;101076;-83
2021/08/31 00:43:24;;;;;;;7.50;6.80;;;;;;;16.29;77.62;99743.34;4900767;28;97860;-83
2021/08/31 00:45:50;;;;;;;7.65;6.95;;;;;;;16.19;78.00;99739.59;4883909;28;96612;-82
2021/08/31 00:48:17;;;;;;;9.88;7.60;;;;;;;16.33;77.98;99753.72;4883613;28;96806;-83
2021/08/31 00:50:45;;;;;;;7.97;7.25;;;;;;;16.28;78.05;99754.00;4867277;28;101024;-82
2021/08/31 00:53:10;;;;;;;11.10;7.65;;;;;;;16.29;78.26;99745.13;4866505;28;101342;-82
2021/08/31 00:55:37;;;;;;;8.70;6.93;;;;;;;16.22;77.81;99733.25;4867160;28;96663;-82
2021/08/31 00:58:02;;;;;;;7.82;6.80;;;;;;;16.20;78.05;99737.78;4883243;28;96909;-82
2021/08/31 01:00:28;;;;;;;8.25;7.10;;;;;;;16.19;78.31;99733.44;4882389;28;97652;-83
2021/08/31 01:02:54;;;;;;;6.65;6.05;;;;;;;16.21;78.32;99739.50;4866535;28;97575;-83
2021/08/31 01:05:20;;;;;;;6.53;5.80;;;;;;;16.20;78.35;99751.91;4866161;28;96596;-82
2021/08/31 01:07:46;;;;;;;6.65;5.88;;;;;;;16.21;78.73;99747.44;4866145;28;96871;-83
2021/08/31 01:10:13;;;;;;;5.97;5.43;;;;;;;16.15;78.86;99754.00;4881985;28;98011;-82
2021/08/31 01:12:39;;;;;;;7.75;5.47;;;;;;;16.18;78.94;99756.44;4866989;28;97692;-82
2021/08/31 01:15:05;;;;;;;5.55;5.03;;;;;;;16.18;78.91;99755.59;4866187;28;96578;-82
2021/08/31 01:17:31;;;;;;;8.43;6.25;;;;;;;16.18;78.85;99751.13;4862984;28;96904;-82
2021/08/31 01:19:58;;;;;;;11.00;4.97;;;;;;;16.23;78.72;99746.38;4864065;28;101163;-83
2021/08/31 01:22:24;;;;;;;8.80;4.97;;;;;;;16.17;78.96;99751.22;4865487;28;101407;-82
2021/08/31 01:24:57;;;;;;;5.65;5.10;;;;;;;16.24;78.70;99750.72;4866555;28;96860;-83
2021/08/31 01:27:24;;;;;;;4.60;4.20;;;;;;;16.18;79.04;99751.13;4883127;28;96848;-83
2021/08/31 01:29:49;;;;;;;4.70;4.03;;;;;;;16.16;78.92;99745.09;4867048;28;98612;-83
2021/08/31 01:32:20;;;;;;;5.32;4.65;;;;;;;16.24;78.72;99758.66;4866738;28;101421;-83
2021/08/31 01:34:46;;;;;;;4.68;4.28;;;;;;;16.25;78.40;99751.56;4883174;28;96648;-82
2021/08/31 01:37:11;;;;;;;5.32;4.82;;;;;;;16.23;78.79;99749.03;4883733;28;96887;-82
2021/08/31 01:39:38;;;;;;;5.53;4.97;;;;;;;16.24;78.72;99748.06;4866452;28;102154;-83
2021/08/31 01:42:04;;;;;;;5.78;5.20;;;;;;;16.18;78.82;99745.84;4881594;28;101118;-82
2021/08/31 01:44:30;;;;;;;5.70;5.13;;;;;;;16.21;78.87;99736.84;4849383;28;96520;-83
2021/08/31 01:46:56;;;;;;;5.82;5.32;;;;;;;16.20;78.72;99738.66;4881761;28;96886;-83
2021/08/31 01:49:21;;;;;;;7.72;5.47;;;;;;;16.22;79.12;99733.25;4865601;28;97958;-83
2021/08/31 01:51:46;;;;;;;6.25;5.75;;;;;;;16.15;79.30;99730.16;4882237;28;97962;-82
2021/08/31 01:54:12;;;;;;;6.00;5.40;;;;;;;16.11;79.64;99731.28;4865447;28;96590;-83
2021/08/31 01:56:39;;;;;;;6.38;5.78;;;;;;;16.10;79.82;99742.84;4866802;28;97094;-83
2021/08/31 01:59:05;;;;;;;6.53;5.93;;;;;;;16.17;79.74;99748.56;4849758;28;101403;-82
2021/08/31 02:01:30;;;;;;;6.88;5.68;;;;;;;16.09;79.89;99732.38;4865488;28;101011;-82
2021/08/31 02:03:56;;;;;;;6.43;5.55;;;;;;;16.12;79.82;99745.41;4866201;28;96502;-83
2021/08/31 02:06:21;;;;;;;5.93;5.35;;;;;;;16.16;79.96;99746.88;4866103;28;98361;-83
2021/08/31 02:08:47;;;;;;;7.13;5.43;;;;;;;16.22;79.54;99749.13;4881044;28;97691;-83
2021/08/31 02:11:12;;;;;;;6.30;5.78;;;;;;;16.19;79.54;99742.22;4865202;28;101375;-83
2021/08/31 02:13:38;;;;;;;5.50;5.00;;;;;;;16.19;79.70;99741.38;4850430;28;96646;-83
2021/08/31 02:16:04;;;;;;;6.60;5.28;;;;;;;16.22;79.72;99749.13;4881618;28;96685;-83
2021/08/31 02:18:29;;;;;;;5.07;4.57;;;;;;;16.19;79.94;99747.53;4849308;28;101410;-83
2021/08/31 02:20:55;;;;;;;5.90;5.32;;;;;;;16.20;79.56;99740.44;4880428;28;101403;-83
2021/08/31 02:23:20;;;;;;;5.10;4.65;;;;;;;16.21;79.60;99740.34;4864993;28;96545;-82
2021/08/31 02:25:46;;;;;;;4.68;4.28;;;;;;;16.17;79.79;99740.63;4864948;28;96998;-83
2021/08/31 02:28:11;;;;;;;5.65;4.55;;;;;;;16.22;79.88;99744.66;4865205;28;98083;-82
2021/08/31 02:30:37;;;;;;;5.45;4.95;;;;;;;16.21;79.95;99742.16;4880746;28;98302;-83
2021/08/31 02:33:03;;;;;;;5.18;4.78;;;;;;;16.22;80.03;99743.84;4864505;28;96675;-83
2021/08/31 02:35:29;;;;;;;5.15;4.65;;;;;;;16.25;79.92;99740.97;4864721;28;96794;-83
2021/08/31 02:37:55;;;;;;;4.60;4.20;;;;;;;16.25;79.97;99740.97;4848700;28;101294;-83
2021/08/31 02:40:21;;;;;;;5.78;4.20;;;;;;;16.22;80.08;99742.03;4864359;28;101668;-83
2021/08/31 02:42:47;;;;;;;4.80;4.40;;;;;;;16.26;79.95;99738.25;4865204;28;96612;-83
2021/08/31 02:45:13;;;;;;;4.90;4.47;;;;;;;16.23;80.02;99738.44;4880291;28;96990;-83
2021/08/31 02:47:39;;;;;;;4.85;4.45;;;;;;;16.17;80.09;99741.47;4848746;28;101550;-83
2021/08/31 02:50:05;;;;;;;6.10;4.60;;;;;;;16.21;80.05;99732.41;4865015;28;98362;-83
2021/08/31 02:52:31;;;;;;;4.28;3.88;;;;;;;16.28;79.50;99732.81;4848716;28;96748;-84
2021/08/31 02:54:56;;;;;;;4.00;3.70;;;;;;;16.20;79.78;99730.72;4880382;28;96818;-83
2021/08/31 02:57:22;;;;;;;5.22;4.00;;;;;;;16.21;79.97;99736.84;4863375;28;101595;-83
2021/08/31 02:59:48;;;;;;;3.78;3.47;;;;;;;16.14;79.87;99720.50;4880025;28;97960;-83
2021/08/31 03:02:13;;;;;;;4.45;3.92;;;;;;;16.20;79.92;99738.66;4864675;28;96748;-82
2021/08/31 03:04:43;;;;;;;4.15;3.85;;;;;;;16.03;79.78;99709.81;4880699;28;96768;-82
2021/08/31 03:07:11;;;;;;;3.63;3.28;;;;;;;16.14;79.99;99727.59;4880293;28;101542;-82
2021/08/31 03:09:37;;;;;;;3.90;3.50;;;;;;;16.21;80.09;99734.19;4864024;28;102189;-83
2021/08/31 03:12:04;;;;;;;3.40;3.10;;;;;;;16.20;79.77;99732.47;4864376;28;96689;-83
2021/08/31 03:14:30;;;;;;;4.40;4.10;;;;;;;16.26;79.42;99738.25;4880442;28;96971;-82
2021/08/31 03:16:56;;;;;;;3.70;3.40;;;;;;;16.26;79.48;99740.00;4848327;28;101653;-83
2021/08/31 03:19:23;;;;;;;14.05;9.30;;;;;;;16.18;79.85;99732.59;4847968;28;101767;-83
2021/08/31 03:21:50;;;;;;;5.63;5.05;;;;;;;16.22;79.52;99742.03;4879863;28;96621;-83
2021/08/31 03:24:16;;;;;;;3.83;3.53;;;;;;;16.22;79.74;99744.66;4863341;28;96993;-83
2021/08/31 03:26:42;;;;;;;4.20;3.30;;;;;;;16.18;80.13;99751.13;4880043;28;97483;-83
2021/08/31 03:29:08;;;;;;;3.80;3.50;;;;;;;16.19;79.91;99744.03;4863729;28;101514;-82
2021/08/31 03:31:34;;;;;;;3.30;3.00;;;;;;;16.18;79.39;99737.91;4863956;28;96551;-83
2021/08/31 03:33:59;;;;;;;5.13;3.03;;;;;;;16.09;79.90;99732.38;4864191;28;96838;-82
2021/08/31 03:36:25;;;;;;;3.70;3.40;;;;;;;16.20;79.76;99758.97;4863672;28;101275;-83
2021/08/31 03:38:51;;;;;;;4.78;3.35;;;;;;;16.15;79.70;99759.28;4848369;28;101595;-83
2021/08/31 03:41:16;;;;;;;3.88;3.58;;;;;;;16.14;79.96;99751.44;4879904;28;96629;-83
2021/08/31 03:43:42;;;;;;;3.85;3.50;;;;;;;16.19;79.77;99757.28;4863827;28;96956;-83
2021/08/31 03:46:07;;;;;;;3.47;3.25;;;;;;;16.18;79.55;99758.22;4864838;28;101981;-83
2021/08/31 03:48:33;;;;;;;3.08;2.83;;;;;;;16.17;79.31;99756.53;4866845;28;101211;-83
2021/08/31 03:50:58;;;;;;;3.60;3.30;;;;;;;16.07;79.47;99743.88;4851699;28;96688;-83
2021/08/31 03:53:24;;;;;;;3.53;3.22;;;;;;;16.14;79.18;99743.47;4883286;28;96962;-83
2021/08/31 03:55:49;;;;;;;3.50;3.20;;;;;;;16.15;79.42;99754.00;4867515;28;97638;-83
2021/08/31 03:58:15;;;;;;;3.95;3.60;;;;;;;16.15;79.52;99756.63;4882992;28;98419;-82
2021/08/31 04:00:40;;;;;;;3.78;3.47;;;;;;;16.20;79.40;99758.97;4866722;28;96626;-83
2021/08/31 04:03:06;;;;;;;3.78;3.35;;;;;;;16.11;79.48;99739.22;4883001;28;96859;-83
2021/08/31 04:05:31;;;;;;;3.45;3.13;;;;;;;16.23;79.44;99761.41;4866475;28;101265;-82
2021/08/31 04:07:57;;;;;;;4.90;4.40;;;;;;;16.18;79.39;99763.53;4866881;28;101664;-82
2021/08/31 04:10:23;;;;;;;4.70;3.75;;;;;;;16.22;79.24;99759.72;4898257;28;96560;-82
2021/08/31 04:12:48;;;;;;;4.03;3.63;;;;;;;16.14;79.58;99752.28;4867281;28;96923;-82
2021/08/31 04:15:14;;;;;;;4.47;3.25;;;;;;;16.11;79.75;99749.81;4883000;28;97617;-82
2021/08/31 04:17:39;;;;;;;4.20;3.40;;;;;;;16.23;79.26;99756.09;4866526;28;101033;-83
2021/08/31 04:20:06;;;;;;;4.05;3.67;;;;;;;16.17;79.49;99761.81;4883082;28;96640;-82
2021/08/31 04:22:31;;;;;;;4.20;3.80;;;;;;;16.11;79.77;99752.47;4882567;28;96880;-83
2021/08/31 04:24:57;;;;;;;5.75;3.72;;;;;;;16.15;79.55;99754.00;4865702;28;101608;-83
2021/08/31 04:27:22;;;;;;;4.38;3.83;;;;;;;16.12;79.39;99742.75;4850809;28;101403;-82
2021/08/31 04:29:48;;;;;;;7.88;3.85;;;;;;;16.14;79.54;99754.06;4867202;28;96910;-83
2021/08/31 04:32:14;;;;;;;5.75;3.65;;;;;;;16.13;79.57;99742.63;4851087;28;96983;-82
2021/08/31 04:34:39;;;;;;;4.38;4.00;;;;;;;16.16;79.38;99749.53;4850260;28;101601;-83
2021/08/31 04:37:04;;;;;;;3.70;3.40;;;;;;;16.17;79.42;99746.78;4850631;28;101629;-82
2021/08/31 04:39:30;;;;;;;3.92;3.63;;;;;;;16.17;79.42;99754.72;4866528;28;96714;-82
2021/08/31 04:42:02;;;;;;;4.05;3.63;;;;;;;16.17;79.28;99756.53;4850814;28;96972;-82
2021/08/31 04:44:28;;;;;;;3.75;3.45;;;;;;;16.16;79.04;99753.03;4866854;28;101078;-82
2021/08/31 04:46:54;;;;;;;4.15;3.80;;;;;;;16.16;79.46;99752.19;4865857;28;100480;-82
2021/08/31 04:49:19;;;;;;;5.28;3.88;;;;;;;16.21;79.15;99761.53;4882421;28;96576;-83
2021/08/31 04:51:45;;;;;;;3.95;3.65;;;;;;;16.22;79.09;99757.91;4883026;28;96810;-83
2021/08/31 04:54:10;;;;;;;4.60;4.20;;;;;;;16.18;79.08;99745.00;4866293;28;98547;-83
2021/08/31 04:56:36;;;;;;;4.10;3.80;;;;;;;16.24;79.38;99763.97;4849937;28;101653;-83
2021/08/31 04:59:01;;;;;;;5.28;3.95;;;;;;;16.05;79.43;99735.19;4865958;28;96563;-82
2021/08/31 05:01:27;;;;;;;4.18;3.75;;;;;;;16.20;79.22;99759.84;4850393;28;96902;-82
2021/08/31 05:03:52;;;;;;;4.18;3.80;;;;;;;16.21;79.10;99750.94;4865604;28;101363;-83
2021/08/31 05:06:18;;;;;;;3.97;3.50;;;;;;;16.15;79.44;99758.44;4865842;28;97516;-82
2021/08/31 05:08:43;;;;;;;4.72;4.05;;;;;;;16.16;79.20;99754.84;4850670;28;96577;-83
2021/08/31 05:11:09;;;;;;;4.70;3.67;;;;;;;16.17;79.14;99752.06;4850836;28;96861;-83
2021/08/31 05:13:39;;;;;;;4.40;4.00;;;;;;;16.20;79.50;99758.97;4866271;28;101567;-82
2021/08/31 05:16:05;;;;;;;5.68;4.38;;;;;;;16.19;79.35;99759.91;4866882;28;100958;-82
2021/08/31 05:18:32;;;;;;;5.80;3.92;;;;;;;16.20;79.37;99751.91;4882184;28;96572;-82
2021/08/31 05:20:58;;;;;;;4.72;3.90;;;;;;;16.12;79.46;99743.59;4850798;28;96905;-83
2021/08/31 05:23:23;;;;;;;4.43;4.03;;;;;;;16.18;79.56;99750.28;4881232;28;97650;-82
2021/08/31 05:25:49;;;;;;;7.25;3.70;;;;;;;16.22;79.61;99743.84;4849601;28;101450;-82
2021/08/31 05:28:14;;;;;;;8.68;3.83;;;;;;;16.28;79.22;99754.00;4865999;28;96567;-82
2021/08/31 05:30:40;;;;;;;3.72;3.42;;;;;;;16.25;79.32;99754.22;4881554;28;96834;-83
2021/08/31 05:33:05;;;;;;;4.20;3.90;;;;;;;16.20;79.49;99745.72;4865629;28;101335;-82
2021/08/31 05:35:31;;;;;;;4.97;3.70;;;;;;;16.25;79.33;99752.41;4850559;28;101363;-82
2021/08/31 05:37:56;;;;;;;3.97;3.60;;;;;;;16.20;79.68;99757.19;4850697;28;96536;-82
2021/08/31 05:40:22;;;;;;;5.10;3.47;;;;;;;16.17;79.66;99753.88;4866162;28;96962;-82
2021/08/31 05:42:47;;;;;;;3.40;3.10;;;;;;;16.18;79.62;99756.44;4849506;28;100965;-83
2021/08/31 05:45:13;;;;;;;3.90;3.60;;;;;;;16.19;79.70;99760.75;4849583;28;101422;-82
2021/08/31 05:47:39;;;;;;;3.78;3.47;;;;;;;16.21;79.90;99764.16;4881126;28;96581;-83
2021/08/31 05:50:05;;;;;;;3.95;3.60;;;;;;;16.19;79.62;99763.41;4865538;28;96995;-82
2021/08/31 05:52:31;;;;;;;4.60;3.85;;;;;;;16.25;79.84;99763.00;4880766;28;101018;-82
2021/08/31 05:54:58;;;;;;;9.80;3.80;;;;;;;16.28;79.62;99769.91;4864986;28;100919;-82
2021/08/31 05:57:24;;;;;;;4.82;3.35;;;;;;;16.26;79.57;99769.16;4865525;28;96701;-83
2021/08/31 05:59:49;;;;;;;3.88;3.30;;;;;;;16.22;79.69;99771.16;4849538;28;96890;-82
2021/08/31 06:02:17;;;;;;;4.72;3.65;;;;;;;16.26;79.71;99763.84;4880417;28;100908;-82
2021/08/31 06:04:43;;;;;;;5.22;4.00;;;;;;;16.25;79.95;99772.75;4849842;28;101334;-82
2021/08/31 06:07:09;;;;;;;3.90;3.60;;;;;;;16.28;79.61;99775.19;4864758;28;96674;-83
2021/08/31 06:09:37;;;;;;;5.10;3.70;;;;;;;16.24;79.62;99774.56;4864047;28;96840;-81
2021/08/31 06:12:06;;;;;;;3.75;3.45;;;;;;;16.25;79.82;99772.75;4896924;28;97939;-81
2021/08/31 06:14:32;;;;;;;4.90;3.65;;;;;;;16.32;79.54;99787.31;4880305;28;101378;-81
2021/08/31 06:16:58;;;;;;;6.53;3.65;;;;;;;16.30;79.42;99776.78;4864879;28;96640;-82
2021/08/31 06:19:23;;;;;;;5.00;4.10;;;;;;;16.33;79.49;99789.00;4865434;28;97113;-82
2021/08/31 06:21:49;;;;;;;4.88;3.50;;;;;;;16.33;79.82;99796.09;4880411;28;101469;-83
2021/08/31 06:24:14;;;;;;;4.10;3.80;;;;;;;16.27;79.96;99787.59;4848422;28;101302;-82
2021/08/31 06:26:40;;;;;;;5.47;3.70;;;;;;;16.25;79.60;99778.06;4881103;28;96639;-83
2021/08/31 06:29:05;;;;;;;6.72;4.70;;;;;;;16.34;79.65;99787.19;4881550;28;96907;-82
2021/08/31 06:31:31;;;;;;;6.47;4.30;;;;;;;16.27;79.52;99782.31;4848664;28;101133;-82
2021/08/31 06:33:56;;;;;;;4.00;3.67;;;;;;;16.30;79.79;99786.53;4864440;28;101310;-82
2021/08/31 06:36:22;;;;;;;3.15;2.95;;;;;;;16.23;79.85;99772.00;4879951;28;96611;-84
2021/08/31 06:38:47;;;;;;;5.15;3.28;;;;;;;16.37;79.86;99779.88;4849017;28;96928;-83
2021/08/31 06:41:13;;;;;;;3.90;3.53;;;;;;;16.33;79.94;99774.91;4864148;28;100547;-81
2021/08/31 06:43:38;;;;;;;3.88;3.50;;;;;;;16.39;79.66;99788.59;4847917;28;99147;-81
2021/08/31 06:46:04;;;;;;;4.82;4.20;;;;;;;16.44;79.43;99786.47;4848505;28;96671;-82
2021/08/31 06:48:29;;;;;;;11.90;4.72;;;;;;;16.57;79.29;99777.69;4880466;28;96908;-81
2021/08/31 06:50:55;;;;;;;5.82;4.13;;;;;;;16.59;79.28;99781.09;4864043;28;101367;-83
2021/08/31 06:53:20;;;;;;;4.85;4.30;;;;;;;16.70;79.20;99797.13;4880434;28;97629;-81
2021/08/31 06:55:46;;;;;;;7.63;4.57;;;;;;;16.69;79.12;99798.06;4864759;28;96586;-82
2021/08/31 06:58:11;;;;;;;5.38;4.13;;;;;;;16.61;79.01;99795.06;4864496;28;96929;-82
2021/08/31 07:00:37;;;;;;;4.20;3.90;;;;;;;16.63;79.52;99801.97;4863360;28;101919;-82
2021/08/31 07:03:02;;;;;;;5.07;4.57;;;;;;;16.69;79.26;99804.22;4864862;28;97554;-92
2021/08/31 07:05:28;;;;;;;4.85;4.40;;;;;;;16.73;78.86;99789.81;4881388;28;96662;-94
2021/08/31 07:07:53;;;;;;;5.15;4.40;;;;;;;16.73;78.90;99794.28;4881739;28;96624;-91
2021/08/31 07:10:19;;;;;;;4.78;4.38;;;;;;;16.83;78.31;99798.00;4865467;28;98606;-85
2021/08/31 07:12:45;;;;;;;4.55;4.15;;;;;;;16.81;78.44;99799.06;4882076;28;97331;-90
2021/08/31 07:15:11;;;;;;;5.82;5.07;;;;;;;16.93;78.29;99803.56;4884055;28;96593;-82
2021/08/31 07:17:36;;;;;;;7.25;5.43;;;;;;;16.88;78.71;99808.31;4864189;28;96916;-82
2021/08/31 07:20:03;;;;;;;6.00;5.13;;;;;;;16.80;78.98;99811.47;4878570;28;98281;-82
2021/08/31 07:22:29;;;;;;;6.70;4.68;;;;;;;16.82;79.01;99808.72;4848082;28;101360;-82
2021/08/31 07:24:54;;;;;;;9.30;5.63;;;;;;;16.92;78.94;99810.63;4878576;28;96799;-82
2021/08/31 07:27:20;;;;;;;12.07;6.05;;;;;;;16.89;78.66;99817.94;4879412;28;96866;-81
2021/08/31 07:29:45;;;;;;;6.90;6.20;;;;;;;16.86;78.93;99807.56;4863348;28;101803;-82
2021/08/31 07:32:11;;;;;;;10.48;5.95;;;;;;;16.90;78.49;99806.38;4847894;28;101677;-81
2021/08/31 07:34:39;;;;;;;8.93;6.10;;;;;;;16.93;78.82;99814.16;4863795;28;96593;-83
2021/08/31 07:37:06;;;;;;;6.40;5.60;;;;;;;17.04;78.75;99816.06;4864406;28;96883;-83
2021/08/31 07:39:31;;;;;;;6.50;5.82;;;;;;;17.06;78.51;99816.81;4847796;28;102227;-83
2021/08/31 07:41:57;;;;;;;7.88;5.68;;;;;;;16.97;78.92;99821.78;4864168;28;97128;-84
2021/08/31 07:44:23;;;;;;;5.40;4.90;;;;;;;16.94;78.60;99823.81;4879556;28;96557;-83
2021/08/31 07:46:50;;;;;;;6.07;5.18;;;;;;;16.91;78.88;99827.50;4863674;28;97026;-83
2021/08/31 07:49:17;;;;;;;6.68;5.50;;;;;;;16.92;78.44;99828.34;4878959;28;98280;-83
2021/08/31 07:51:43;;;;;;;5.53;5.03;;;;;;;16.89;78.67;99831.22;4863338;28;100211;-84
2021/08/31 07:54:10;;;;;;;7.53;5.63;;;;;;;16.96;78.77;99832.50;4879322;28;96690;-82
2021/08/31 07:56:36;;;;;;;5.57;4.90;;;;;;;16.95;78.87;99836.09;4879678;28;96894;-84
2021/08/31 07:59:02;;;;;;;5.95;5.35;;;;;;;17.00;78.59;99835.78;4847776;28;101461;-84
2021/08/31 08:01:29;;;;;;;9.07;4.75;;;;;;;16.98;78.61;99815.50;4863214;28;100964;-83
2021/08/31 08:03:55;;;;;;;5.80;5.28;;;;;;;16.98;78.77;99826.13;4863896;28;96700;-83
2021/08/31 08:06:21;;;;;;;5.30;4.80;;;;;;;17.04;78.87;99826.66;4879691;28;96960;-83
2021/08/31 08:08:46;;;;;;;7.22;4.57;;;;;;;17.08;78.62;99831.66;4863156;28;101742;-80
2021/08/31 08:11:12;;;;;;;5.15;4.75;;;;;;;17.07;78.67;99829.94;4879100;28;97838;-82
2021/08/31 08:13:37;;;;;;;5.68;5.03;;;;;;;17.07;78.59;99839.69;4846939;28;96555;-81
2021/08/31 08:16:04;;;;;;;6.30;4.93;;;;;;;17.12;78.57;99837.59;4879212;28;96754;-81
2021/08/31 08:18:29;;;;;;;5.97;4.90;;;;;;;17.07;78.59;99850.31;4862749;28;100246;-83
2021/08/31 08:20:55;;;;;;;4.85;4.45;;;;;;;17.05;78.78;99842.47;4847288;28;101255;-83
2021/08/31 08:23:20;;;;;;;5.07;4.40;;;;;;;17.07;78.77;99850.31;4847614;28;96569;-83
2021/08/31 08:25:46;;;;;;;4.63;4.22;;;;;;;17.00;78.89;99830.47;4878674;28;96615;-82
2021/08/31 08:28:11;;;;;;;4.93;4.07;;;;;;;17.11;78.54;99846.50;4862481;28;101803;-84
2021/08/31 08:30:37;;;;;;;4.88;4.32;;;;;;;17.13;78.84;99853.41;4847322;28;101338;-83
2021/08/31 08:33:02;;;;;;;5.28;4.78;;;;;;;17.07;78.70;99851.16;4865868;28;96575;-85
2021/08/31 08:35:28;;;;;;;6.00;4.68;;;;;;;17.04;79.04;99858.47;4866567;28;96856;-84
2021/08/31 08:37:53;;;;;;;4.63;3.70;;;;;;;17.02;78.84;99849.81;4850071;28;101202;-83
2021/08/31 08:40:19;;;;;;;4.60;3.60;;;;;;;17.00;79.09;99855.19;4866150;28;100917;-86
2021/08/31 08:42:45;;;;;;;4.20;3.80;;;;;;;17.04;79.08;99859.31;4866347;28;96531;-83
2021/08/31 08:45:10;;;;;;;5.32;3.65;;;;;;;17.01;79.64;99867.47;4882375;28;96769;-90
2021/08/31 08:47:36;;;;;;;5.07;4.20;;;;;;;17.05;78.98;99857.53;4863271;28;98617;-85
2021/08/31 08:50:03;;;;;;;3.92;3.63;;;;;;;17.10;78.83;99860.72;4864367;28;101463;-83
2021/08/31 08:52:29;;;;;;;4.07;3.78;;;;;;;17.16;78.67;99863.81;4866258;28;96681;-85
2021/08/31 08:54:55;;;;;;;4.00;3.60;;;;;;;17.16;78.73;99868.22;4867284;28;96752;-86
2021/08/31 08:57:20;;;;;;;3.95;3.55;;;;;;;17.18;78.92;99867.19;4882483;28;98079;-85
2021/08/31 08:59:48;;;;;;;3.55;3.25;;;;;;;17.25;78.78;99869.41;4850529;28;101321;-86
2021/08/31 09:02:40;;;;;;;3.80;3.50;;;;;;;17.33;78.62;99869.72;4881747;28;96671;-84
2021/08/31 09:05:06;;;;;;;;;;;;;;;17.32;78.82;99876.00;4882235;28;96718;-82
2021/08/31 09:07:38;;;;;;;4.47;3.10;;;;;;;17.40;78.85;99876.34;4849922;28;101348;-82
2021/08/31 09:10:20;;;;;;;3.60;3.20;;;;;;;17.54;78.08;99878.00;4866038;28;97965;-83
2021/08/31 09:12:48;;;;;;;3.25;3.03;;;;;;;17.53;78.10;99882.47;4865959;28;96670;-82
2021/08/31 09:15:20;;;;;;;3.58;3.28;;;;;;;17.47;78.05;99866.13;4881659;28;96945;-81
2021/08/31 09:18:04;;;;;;;4.60;3.10;;;;;;;17.40;78.49;99877.19;4897044;28;101654;-83
2021/08/31 09:20:31;;;;;;;3.08;2.78;;;;;;;17.53;78.17;99878.97;4897335;28;101688;-83
2021/08/31 09:22:58;;;;;;;3.10;2.80;;;;;;;17.54;78.08;99878.00;4866399;28;96686;-83
2021/08/31 09:25:39;;;;;;;3.00;2.80;;;;;;;17.63;77.77;99883.53;4881121;28;96864;-81
2021/08/31 09:28:27;;;;;;;3.28;2.97;;;;;;;17.59;78.44;99875.88;4864920;28;101079;-83
2021/08/31 09:30:57;;;;;;;3.58;3.28;;;;;;;17.56;78.48;99884.06;4865184;28;101058;-85
2021/08/31 09:33:25;;;;;;;7.13;3.13;;;;;;;17.54;78.38;99873.56;4881472;28;96572;-84
2021/08/31 09:36:24;;;;;;;5.18;2.78;;;;;;;17.58;78.16;99882.16;4865429;28;96944;-84
2021/08/31 09:38:55;;;;;;;3.25;2.95;;;;;;;17.67;78.40;99891.28;4824068;28;101424;-82
2021/08/31 09:41:29;;;;;;;3.17;2.78;;;;;;;17.62;78.52;99896.91;4849497;28;101023;-81
2021/08/31 09:43:56;;;;;;;3.95;3.35;;;;;;;17.51;78.49;99894.13;4880371;28;96655;-80
2021/08/31 09:46:22;;;;;;;4.30;3.20;;;;;;;17.53;78.26;99898.38;4850005;28;96926;-81
2021/08/31 09:48:47;;;;;;;3.10;2.90;;;;;;;17.50;78.38;99892.44;4864896;28;99432;-78
2021/08/31 09:51:15;;;;;;;2.90;2.67;;;;;;;17.50;78.52;99895.09;4864863;28;100995;-80
2021/08/31 09:53:41;;;;;;;4.38;2.83;;;;;;;17.51;78.65;99895.00;4864970;28;96614;-80
2021/08/31 09:56:10;;;;;;;5.85;3.30;;;;;;;17.49;78.51;99899.56;4849625;28;96869;-81
2021/08/31 09:58:41;;;;;;;3.42;3.13;;;;;;;17.45;79.21;99900.72;4849109;28;101565;-81
2021/08/31 10:01:06;;;;;;;3.38;3.10;;;;;;;17.47;78.96;99900.63;4864890;28;101575;-81
2021/08/31 10:03:33;;;;;;;3.55;3.25;;;;;;;17.39;78.86;99899.38;4849473;28;96717;-81
2021/08/31 10:06:00;;;;;;;4.15;3.25;;;;;;;17.43;78.71;99905.31;4881048;28;96903;-81
2021/08/31 10:08:28;;;;;;;3.70;3.22;;;;;;;17.42;79.22;99908.88;4864720;28;101428;-80
2021/08/31 10:10:54;;;;;;;3.78;3.45;;;;;;;17.42;78.97;99909.75;4880733;28;97893;-81
2021/08/31 10:13:24;;;;;;;3.90;3.53;;;;;;;17.48;78.64;99912.94;4849259;28;96587;-81
2021/08/31 10:15:53;;;;;;;3.97;3.58;;;;;;;17.42;79.18;99891.19;4849631;28;96886;-81
2021/08/31 10:18:21;;;;;;;4.15;3.60;;;;;;;17.47;78.91;99887.34;4848638;28;101465;-82
2021/08/31 10:20:54;;;;;;;4.07;3.63;;;;;;;17.57;78.79;99910.50;4880894;28;97375;-79
2021/08/31 10:23:47;;;;;;;6.93;3.40;;;;;;;17.55;79.11;99912.41;4864269;28;96617;-80
2021/08/31 10:26:22;;;;;;;4.20;3.67;;;;;;;17.57;79.08;99914.94;4868693;28;96894;-79
2021/08/31 10:28:53;;;;;;;3.70;3.40;;;;;;;17.51;78.78;99910.06;4897796;28;97934;-82
2021/08/31 10:31:30;;;;;;;5.22;4.28;;;;;;;17.47;78.73;99900.63;4879914;28;101379;-83
2021/08/31 10:33:56;;;;;;;5.35;4.72;;;;;;;17.58;78.78;99917.50;4864790;28;96715;-82
2021/08/31 10:36:37;;;;;;;3.10;2.90;;;;;;;17.61;78.67;99908.47;4881369;28;96818;-82
2021/08/31 10:39:06;;;;;;;4.70;4.25;;;;;;;17.80;78.47;99921.31;4848663;28;101432;-82
2021/08/31 10:41:48;;;;;;;5.35;4.85;;;;;;;17.86;77.75;99910.31;4848901;28;101721;-83
2021/08/31 10:44:41;;;;;;;5.00;4.50;;;;;;;17.84;77.75;99921.00;4881799;28;96532;-84
2021/08/31 10:47:27;;;;;;;5.13;4.50;;;;;;;18.00;77.72;99915.44;4880431;28;96623;-82
2021/08/31 10:49:59;;;;;;;7.28;5.05;;;;;;;18.00;78.32;99914.59;4864276;28;97988;-83
2021/08/31 10:52:50;;;;;;;5.25;4.85;;;;;;;18.04;78.11;99916.09;4880350;28;97942;-83
2021/08/31 10:55:28;;;;;;;4.70;4.30;;;;;;;17.86;77.82;99908.50;4880788;28;96710;-84
2021/08/31 10:58:02;;;;;;;5.70;5.15;;;;;;;17.74;78.44;99911.09;4880069;28;96886;-83
2021/08/31 11:00:28;;;;;;;5.28;4.78;;;;;;;17.84;78.09;99923.66;4879954;28;97991;-82
2021/08/31 11:02:59;;;;;;;4.97;3.92;;;;;;;17.87;77.79;99931.41;4880125;28;98321;-83
2021/08/31 11:05:28;;;;;;;6.50;4.63;;;;;;;17.84;77.93;99930.78;4879716;28;96803;-83
2021/08/31 11:08:00;;;;;;;8.82;5.72;;;;;;;17.84;78.06;99928.97;4897153;28;96550;-80
2021/08/31 11:10:40;;;;;;;3.72;3.42;;;;;;;17.77;77.94;99938.31;4894824;28;101553;-80
2021/08/31 11:13:13;;;;;;;4.60;4.18;;;;;;;17.80;78.06;99935.47;4879481;28;101694;-81
2021/08/31 11:15:40;;;;;;;7.63;4.97;;;;;;;17.68;78.03;99920.34;4863786;28;96570;-82
2021/08/31 11:18:14;;;;;;;6.72;4.55;;;;;;;17.73;78.44;99936.81;4864066;28;96882;-86
2021/08/31 11:20:41;;;;;;;6.65;4.50;;;;;;;17.75;78.34;99932.25;4863681;28;97608;-80
2021/08/31 11:23:19;;;;;;;5.45;4.53;;;;;;;17.80;78.19;99942.56;4863578;28;101645;-80
2021/08/31 11:25:50;;;;;;;5.38;4.88;;;;;;;17.79;77.93;99931.09;4879669;28;96877;-78
2021/08/31 11:28:27;;;;;;;7.35;5.60;;;;;;;17.73;78.00;99944.78;4864309;28;96752;-80
2021/08/31 11:31:06;;;;;;;5.57;5.07;;;;;;;17.63;78.06;99933.97;4863788;28;98369;-80